createdAt,value
2023-02-09T00:01:58.412Z,-3.19
2023-02-09T00:07:01.865Z,-3.31
2023-02-09T00:12:22.452Z,-3.16
2023-02-09T00:17:24.712Z,-3.17
2023-02-09T00:22:29.723Z,-3.16
2023-02-09T00:27:35.692Z,-3.29
2023-02-09T00:32:38.919Z,-3.16
2023-02-09T00:37:42.344Z,-3.17
2023-02-09T00:42:44.554Z,-3.35
2023-02-09T00:47:46.699Z,-3.26
2023-02-09T00:52:49.063Z,-3.22
2023-02-09T00:57:51.178Z,-3.44
2023-02-09T01:02:53.326Z,-3.27
2023-02-09T01:07:55.440Z,-3.39
2023-02-09T01:13:03.811Z,-3.18
2023-02-09T01:18:07.665Z,-3.15
2023-02-09T01:23:10.218Z,-3.31
2023-02-09T01:28:12.389Z,-3.25
2023-02-09T01:33:14.595Z,-3.32
2023-02-09T01:38:16.674Z,-3.14
2023-02-09T01:43:18.951Z,-3.35
2023-02-09T01:48:27.302Z,-3.17
2023-02-09T01:53:29.528Z,-3.13
2023-02-09T01:58:32.207Z,-3.19
2023-02-09T02:03:34.530Z,-3.23
2023-02-09T02:08:58.928Z,-3.14
2023-02-09T02:14:01.126Z,-3.35
2023-02-09T02:19:50.710Z,-3.07
2023-02-09T02:25:23.888Z,-3.04
2023-02-09T02:30:48.037Z,-3.05
2023-02-09T02:35:55.530Z,-3.26
2023-02-09T02:41:10.218Z,-3.19
2023-02-09T02:46:31.156Z,-3.07
2023-02-09T02:51:39.958Z,-3.05
2023-02-09T02:57:18.607Z,-2.99
2023-02-09T03:02:24.022Z,-3.05
2023-02-09T03:07:26.461Z,-3.07
2023-02-09T03:12:52.542Z,-2.98
2023-02-09T03:18:11.108Z,-3.16
2023-02-09T03:23:19.505Z,-3.01
2023-02-09T03:28:31.447Z,-3.11
2023-02-09T03:33:34.698Z,-3.13
2023-02-09T03:38:36.926Z,-3.18
2023-02-09T03:44:03.618Z,-3.02
2023-02-09T03:49:05.824Z,-3.01
2023-02-09T03:54:08.248Z,-3.00
2023-02-09T03:59:10.718Z,-3.17
2023-02-09T04:04:12.982Z,-3.00
2023-02-09T04:09:15.293Z,-2.99
2023-02-09T04:14:17.763Z,-3.13
2023-02-09T04:19:19.906Z,-3.06
2023-02-09T04:24:22.120Z,-3.12
2023-02-09T04:29:24.321Z,-3.21
2023-02-09T04:34:26.607Z,-3.13
2023-02-09T04:39:28.980Z,-3.00
2023-02-09T04:44:40.135Z,-3.15
2023-02-09T04:49:42.887Z,-3.03
2023-02-09T04:54:45.240Z,-3.03
2023-02-09T04:59:47.404Z,-3.22
2023-02-09T05:04:49.529Z,-2.95
2023-02-09T05:09:51.652Z,-2.98
2023-02-09T05:14:53.772Z,-3.14
2023-02-09T05:19:55.948Z,-2.94
2023-02-09T05:24:58.036Z,-2.98
2023-02-09T05:30:00.272Z,-3.03
2023-02-09T05:35:02.493Z,-3.06
2023-02-09T05:40:06.327Z,-3.05
2023-02-09T05:45:18.088Z,-2.88
2023-02-09T05:50:20.272Z,-3.00
2023-02-09T05:55:22.401Z,-3.04
2023-02-09T06:00:25.360Z,-3.03
2023-02-09T06:05:27.794Z,-2.83
2023-02-09T06:10:29.872Z,-3.03
2023-02-09T06:15:32.109Z,-2.80
2023-02-09T06:20:34.213Z,-2.79
2023-02-09T06:25:39.639Z,-2.79
2023-02-09T06:30:41.816Z,-2.73
2023-02-09T06:35:44.586Z,-2.77
2023-02-09T06:40:47.737Z,-2.70
2023-02-09T06:51:26.427Z,-2.66
2023-02-09T06:56:28.614Z,-2.74
2023-02-09T07:01:30.776Z,-2.93
2023-02-09T07:06:33.127Z,-2.77
2023-02-09T07:11:35.341Z,-2.84
2023-02-09T07:16:37.578Z,-2.57
2023-02-09T07:21:39.686Z,-2.74
2023-02-09T07:26:41.950Z,-2.74
2023-02-09T07:31:44.221Z,-2.58
2023-02-09T07:36:47.817Z,-2.54
2023-02-09T07:41:50.458Z,-2.67
2023-02-09T07:46:52.730Z,-2.65
2023-02-09T07:51:54.897Z,-2.58
2023-02-09T07:56:57.120Z,-2.40
2023-02-09T08:01:59.302Z,-2.37
2023-02-09T08:07:01.501Z,-2.56
2023-02-09T08:12:05.365Z,-2.35
2023-02-09T08:17:28.226Z,-2.38
2023-02-09T08:22:32.880Z,-2.44
2023-02-09T08:27:36.542Z,-2.38
2023-02-09T08:32:38.794Z,-2.24
2023-02-09T08:37:40.903Z,-2.20
2023-02-09T08:42:43.159Z,-2.30
2023-02-09T08:47:45.359Z,-2.36
2023-02-09T08:52:47.790Z,-2.13
2023-02-09T08:57:49.997Z,-2.16
2023-02-09T09:02:52.180Z,-2.34
2023-02-09T09:07:54.399Z,-2.10
2023-02-09T09:12:56.693Z,-2.29
2023-02-09T09:17:58.817Z,-2.06
2023-02-09T09:23:02.189Z,-2.05
2023-02-09T09:28:04.376Z,-2.21
2023-02-09T09:33:06.657Z,-2.01
2023-02-09T09:38:08.943Z,-2.20
2023-02-09T09:43:38.457Z,-1.89
2023-02-09T09:48:44.422Z,-1.92
2023-02-09T09:53:50.169Z,-1.92
2023-02-09T09:58:52.376Z,-2.06
2023-02-09T10:03:59.102Z,-1.96
2023-02-09T10:09:10.334Z,-2.02
2023-02-09T10:14:12.590Z,-1.93
2023-02-09T10:19:20.864Z,-2.04
2023-02-09T10:24:30.198Z,-1.80
2023-02-09T10:29:32.343Z,-1.94
2023-02-09T10:34:48.470Z,-1.75
2023-02-09T10:40:06.976Z,-1.91
2023-02-09T10:45:17.858Z,-1.91
2023-02-09T10:50:20.253Z,-1.73
2023-02-09T10:55:30.556Z,-1.89
2023-02-09T11:00:37.530Z,-1.79
2023-02-09T11:05:39.951Z,-1.69
2023-02-09T11:11:29.097Z,-1.72
2023-02-09T11:16:53.260Z,-1.59
2023-02-09T11:22:10.903Z,-1.64
2023-02-09T11:27:29.870Z,-1.59
2023-02-09T11:32:45.395Z,-1.80
2023-02-09T11:38:01.054Z,-1.62
2023-02-09T11:43:25.538Z,-1.60
2023-02-09T11:48:37.332Z,-1.53
2023-02-09T11:53:48.096Z,-1.65
2023-02-09T11:59:11.895Z,-1.51
2023-02-09T12:04:18.656Z,-1.57
2023-02-09T12:10:00.574Z,-1.44
2023-02-09T12:15:08.904Z,-1.47
2023-02-09T12:20:37.392Z,-1.63
2023-02-09T12:26:01.867Z,-1.41
2023-02-09T12:31:04.116Z,-1.45
2023-02-09T12:36:12.606Z,-1.46
2023-02-09T12:41:51.586Z,-1.41
2023-02-09T12:46:56.220Z,-1.48
2023-02-09T12:52:02.364Z,-1.45
2023-02-09T12:57:17.066Z,-1.42
2023-02-09T13:02:48.648Z,-1.40
2023-02-09T13:08:07.484Z,-1.60
2023-02-09T13:13:12.743Z,-1.44
2023-02-09T13:18:14.826Z,-1.45
2023-02-09T13:23:21.145Z,-1.45
2023-02-09T13:28:23.359Z,-1.72
2023-02-09T13:33:34.168Z,-1.59
2023-02-09T13:38:40.997Z,-1.58
2023-02-09T13:43:46.511Z,-1.48
2023-02-09T13:48:48.636Z,-1.49
2023-02-09T13:54:02.081Z,-1.53
2023-02-09T13:59:07.155Z,-1.51
2023-02-09T14:04:29.987Z,-1.56
2023-02-09T14:09:41.852Z,-1.67
2023-02-09T14:15:32.403Z,-1.52
2023-02-09T14:20:35.164Z,-1.65
2023-02-09T14:25:37.539Z,-1.81
2023-02-09T14:30:50.150Z,-1.52
2023-02-09T14:35:59.343Z,-1.56
2023-02-09T14:41:27.416Z,-1.53
2023-02-09T14:46:50.550Z,-1.54
2023-02-09T14:52:05.724Z,-1.72
2023-02-09T14:57:11.103Z,-1.61
2023-02-09T15:02:20.592Z,-1.60
2023-02-09T15:07:30.364Z,-1.77
2023-02-09T15:12:33.124Z,-1.85
2023-02-09T15:17:35.461Z,-1.66
2023-02-09T15:22:37.826Z,-1.67
2023-02-09T15:27:51.928Z,-1.64
2023-02-09T15:32:54.616Z,-1.68
2023-02-09T15:37:59.882Z,-1.68
2023-02-09T15:43:24.122Z,-1.82
2023-02-09T15:48:27.597Z,-1.77
2023-02-09T15:53:31.448Z,-1.72
2023-02-09T15:58:39.651Z,-1.65
2023-02-09T16:03:42.610Z,-1.90
2023-02-09T16:08:50.265Z,-1.68
2023-02-09T16:13:54.559Z,-1.68
2023-02-09T16:18:56.763Z,-1.78
2023-02-09T16:24:01.571Z,-1.78
2023-02-09T16:29:04.384Z,-1.73
2023-02-09T16:34:07.810Z,-1.88
2023-02-09T16:39:18.544Z,-1.68
2023-02-09T16:44:23.778Z,-1.71
2023-02-09T16:49:33.235Z,-1.69
2023-02-09T16:54:41.456Z,-1.71
2023-02-09T16:59:44.052Z,-1.72
2023-02-09T17:05:33.324Z,-1.67
2023-02-09T17:10:36.359Z,-1.85
2023-02-09T17:15:47.444Z,-1.90
2023-02-09T17:20:58.121Z,-1.84
2023-02-09T17:26:00.486Z,-1.81
2023-02-09T17:31:04.524Z,-1.81
2023-02-09T17:36:27.625Z,-1.90
2023-02-09T17:41:39.404Z,-1.84
2023-02-09T17:46:42.860Z,-1.88
2023-02-09T17:51:48.627Z,-1.87
2023-02-09T17:56:51.670Z,-1.79
2023-02-09T18:01:56.567Z,-2.04
2023-02-09T18:06:58.774Z,-2.02
2023-02-09T18:12:20.456Z,-1.99
2023-02-09T18:17:22.659Z,-1.88
2023-02-09T18:22:27.857Z,-2.03
2023-02-09T18:27:30.065Z,-1.90
2023-02-09T18:32:32.210Z,-1.97
2023-02-09T18:37:40.522Z,-1.87
2023-02-09T18:42:43.479Z,-2.30
2023-02-09T18:47:46.808Z,-1.92
2023-02-09T18:52:52.562Z,-1.90
2023-02-09T18:57:58.026Z,-2.18
2023-02-09T19:03:00.375Z,-2.11
2023-02-09T19:08:02.766Z,-2.03
2023-02-09T19:13:05.580Z,-1.94
2023-02-09T19:18:07.792Z,-1.96
2023-02-09T19:23:10.031Z,-2.15
2023-02-09T19:28:12.695Z,-2.12
2023-02-09T19:33:15.155Z,-2.22
2023-02-09T19:38:17.609Z,-2.16
2023-02-09T19:43:21.120Z,-2.11
2023-02-09T19:48:24.016Z,-2.16
2023-02-09T19:53:26.803Z,-2.11
2023-02-09T19:58:29.220Z,-2.23
2023-02-09T20:03:31.746Z,-2.05
2023-02-09T20:08:34.014Z,-2.05
2023-02-09T20:13:36.805Z,-2.30
2023-02-09T20:18:40.436Z,-2.25
2023-02-09T20:23:44.998Z,-2.10
2023-02-09T20:28:51.158Z,-2.47
2023-02-09T20:33:53.843Z,-2.24
2023-02-09T20:38:56.152Z,-2.16
2023-02-09T20:44:16.783Z,-2.20
2023-02-09T20:49:19.329Z,-2.22
2023-02-09T20:54:21.743Z,-2.10
2023-02-09T20:59:24.791Z,-2.23
2023-02-09T21:04:30.448Z,-2.23
2023-02-09T21:09:32.673Z,-2.24
2023-02-09T21:14:43.120Z,-2.20
2023-02-09T21:19:46.771Z,-2.17
2023-02-09T21:24:48.967Z,-2.37
2023-02-09T21:29:51.250Z,-2.65
2023-02-09T21:34:53.503Z,-2.36
2023-02-09T21:39:56.194Z,-2.19
2023-02-09T21:45:00.400Z,-2.35
2023-02-09T21:50:04.734Z,-2.53
2023-02-09T21:55:08.544Z,-2.26
2023-02-09T22:00:14.963Z,-2.39
2023-02-09T22:05:18.578Z,-2.25
2023-02-09T22:10:21.258Z,-2.31
2023-02-09T22:15:24.093Z,-2.32
2023-02-09T22:20:36.067Z,-2.28
2023-02-09T22:25:38.546Z,-2.50
2023-02-09T22:30:40.828Z,-2.30
2023-02-09T22:35:43.082Z,-2.52
2023-02-09T22:40:45.533Z,-2.31
2023-02-09T22:45:55.209Z,-2.44
2023-02-09T22:50:57.381Z,-2.35
2023-02-09T22:56:03.607Z,-2.28
2023-02-09T23:01:06.704Z,-2.46
2023-02-09T23:06:12.636Z,-2.35
2023-02-09T23:11:17.466Z,-2.29
2023-02-09T23:16:22.694Z,-2.29
2023-02-09T23:21:28.674Z,-2.30
2023-02-09T23:26:30.886Z,-2.47
2023-02-09T23:31:33.436Z,-2.38
2023-02-09T23:36:35.906Z,-2.42
2023-02-09T23:41:38.106Z,-2.35
2023-02-09T23:46:40.314Z,-2.38
2023-02-09T23:51:44.465Z,-2.42
2023-02-09T23:56:46.775Z,-2.72
